sensor_id;sensor_type;location;lat;lon;timestamp;pressure;altitude;pressure_sealevel;temperature;humidity
76024;BME280;64719;52.124;6.226;2023-07-13T00:00:09;101454.09;;;14.85;100.00
76024;BME280;64719;52.124;6.226;2023-07-13T00:02:36;101449.00;;;14.77;100.00
76024;BME280;64719;52.124;6.226;2023-07-13T00:05:04;101454.97;;;14.74;100.00
76024;BME280;64719;52.124;6.226;2023-07-13T00:07:33;101465.91;;;14.74;100.00
76024;BME280;64719;52.124;6.226;2023-07-13T00:10:00;101460.13;;;14.59;100.00
76024;BME280;64719;52.124;6.226;2023-07-13T00:12:29;101463.72;;;14.59;100.00
76024;BME280;64719;52.124;6.226;2023-07-13T00:14:57;101456.06;;;14.73;100.00
76024;BME280;64719;52.124;6.226;2023-07-13T00:17:25;101449.50;;;14.74;100.00
76024;BME280;64719;52.124;6.226;2023-07-13T00:19:53;101456.66;;;14.75;100.00
76024;BME280;64719;52.124;6.226;2023-07-13T00:22:21;101458.72;;;14.85;100.00
76024;BME280;64719;52.124;6.226;2023-07-13T00:24:50;101455.81;;;14.75;100.00
76024;BME280;64719;52.124;6.226;2023-07-13T00:27:18;101463.09;;;14.69;100.00
76024;BME280;64719;52.124;6.226;2023-07-13T00:29:44;101462.00;;;14.70;100.00
76024;BME280;64719;52.124;6.226;2023-07-13T00:32:11;101465.34;;;14.60;100.00
76024;BME280;64719;52.124;6.226;2023-07-13T00:34:38;101466.78;;;14.63;100.00
76024;BME280;64719;52.124;6.226;2023-07-13T00:37:06;101460.25;;;14.64;100.00
76024;BME280;64719;52.124;6.226;2023-07-13T00:39:34;101466.56;;;14.64;100.00
76024;BME280;64719;52.124;6.226;2023-07-13T00:42:03;101465.81;;;14.69;100.00
76024;BME280;64719;52.124;6.226;2023-07-13T00:44:30;101467.72;;;14.68;100.00
76024;BME280;64719;52.124;6.226;2023-07-13T00:46:56;101466.97;;;14.73;100.00
76024;BME280;64719;52.124;6.226;2023-07-13T00:49:26;101471.22;;;14.81;100.00
76024;BME280;64719;52.124;6.226;2023-07-13T00:51:55;101468.16;;;14.77;100.00
76024;BME280;64719;52.124;6.226;2023-07-13T00:54:24;101475.13;;;14.85;100.00
76024;BME280;64719;52.124;6.226;2023-07-13T00:56:55;101471.34;;;14.86;100.00
76024;BME280;64719;52.124;6.226;2023-07-13T00:59:26;101468.75;;;14.79;100.00
76024;BME280;64719;52.124;6.226;2023-07-13T01:01:53;101480.03;;;14.71;100.00
76024;BME280;64719;52.124;6.226;2023-07-13T01:04:23;101466.97;;;14.73;100.00
76024;BME280;64719;52.124;6.226;2023-07-13T01:06:51;101468.88;;;14.73;100.00
76024;BME280;64719;52.124;6.226;2023-07-13T01:09:18;101467.09;;;14.78;100.00
76024;BME280;64719;52.124;6.226;2023-07-13T01:11:46;101470.50;;;14.85;100.00
76024;BME280;64719;52.124;6.226;2023-07-13T01:14:13;101469.41;;;14.86;100.00
76024;BME280;64719;52.124;6.226;2023-07-13T01:16:42;101468.25;;;14.82;100.00
76024;BME280;64719;52.124;6.226;2023-07-13T01:19:18;101477.13;;;14.89;100.00
76024;BME280;64719;52.124;6.226;2023-07-13T01:21:52;101474.63;;;14.88;100.00
76024;BME280;64719;52.124;6.226;2023-07-13T01:24:19;101474.88;;;14.86;100.00
76024;BME280;64719;52.124;6.226;2023-07-13T01:26:45;101472.63;;;14.83;100.00
76024;BME280;64719;52.124;6.226;2023-07-13T01:29:12;101472.88;;;14.82;100.00
76024;BME280;64719;52.124;6.226;2023-07-13T01:31:39;101473.53;;;14.72;100.00
76024;BME280;64719;52.124;6.226;2023-07-13T01:34:05;101478.41;;;14.70;100.00
76024;BME280;64719;52.124;6.226;2023-07-13T01:36:33;101471.97;;;14.76;100.00
76024;BME280;64719;52.124;6.226;2023-07-13T01:39:03;101477.00;;;14.68;100.00
76024;BME280;64719;52.124;6.226;2023-07-13T01:41:30;101472.94;;;14.70;100.00
76024;BME280;64719;52.124;6.226;2023-07-13T01:43:56;101475.31;;;14.66;100.00
76024;BME280;64719;52.124;6.226;2023-07-13T01:46:23;101472.50;;;14.61;100.00
76024;BME280;64719;52.124;6.226;2023-07-13T01:48:50;101476.41;;;14.65;100.00
76024;BME280;64719;52.124;6.226;2023-07-13T01:51:19;101468.25;;;14.54;100.00
76024;BME280;64719;52.124;6.226;2023-07-13T01:53:46;101474.19;;;14.51;100.00
76024;BME280;64719;52.124;6.226;2023-07-13T01:56:14;101470.63;;;14.50;100.00
76024;BME280;64719;52.124;6.226;2023-07-13T01:58:41;101464.78;;;14.58;100.00
76024;BME280;64719;52.124;6.226;2023-07-13T02:01:07;101464.78;;;14.58;100.00
76024;BME280;64719;52.124;6.226;2023-07-13T02:03:34;101468.97;;;14.49;100.00
76024;BME280;64719;52.124;6.226;2023-07-13T02:06:01;101472.88;;;14.53;100.00
76024;BME280;64719;52.124;6.226;2023-07-13T02:08:28;101470.50;;;14.57;100.00
76024;BME280;64719;52.124;6.226;2023-07-13T02:10:55;101470.78;;;14.72;100.00
76024;BME280;64719;52.124;6.226;2023-07-13T02:13:23;101470.59;;;14.90;100.00
76024;BME280;64719;52.124;6.226;2023-07-13T02:15:50;101470.91;;;14.94;100.00
76024;BME280;64719;52.124;6.226;2023-07-13T02:18:17;101483.84;;;14.98;100.00
76024;BME280;64719;52.124;6.226;2023-07-13T02:20:44;101469.19;;;15.04;100.00
76024;BME280;64719;52.124;6.226;2023-07-13T02:23:10;101463.25;;;15.07;100.00
76024;BME280;64719;52.124;6.226;2023-07-13T02:25:37;101461.97;;;14.98;100.00
76024;BME280;64719;52.124;6.226;2023-07-13T02:28:04;101468.13;;;14.89;100.00
76024;BME280;64719;52.124;6.226;2023-07-13T02:30:32;101469.34;;;14.81;100.00
76024;BME280;64719;52.124;6.226;2023-07-13T02:32:58;101482.28;;;14.74;100.00
76024;BME280;64719;52.124;6.226;2023-07-13T02:35:25;101474.75;;;14.64;100.00
76024;BME280;64719;52.124;6.226;2023-07-13T02:37:52;101479.84;;;14.61;100.00
76024;BME280;64719;52.124;6.226;2023-07-13T02:40:19;101486.28;;;14.55;100.00
76024;BME280;64719;52.124;6.226;2023-07-13T02:42:46;101481.91;;;14.54;100.00
76024;BME280;64719;52.124;6.226;2023-07-13T02:45:12;101484.41;;;14.44;100.00
76024;BME280;64719;52.124;6.226;2023-07-13T02:47:41;101485.63;;;14.36;100.00
76024;BME280;64719;52.124;6.226;2023-07-13T02:50:08;101480.31;;;14.30;100.00
76024;BME280;64719;52.124;6.226;2023-07-13T02:52:35;101479.81;;;14.33;100.00
76024;BME280;64719;52.124;6.226;2023-07-13T02:55:02;101480.31;;;14.30;100.00
76024;BME280;64719;52.124;6.226;2023-07-13T02:57:29;101496.28;;;14.38;100.00
76024;BME280;64719;52.124;6.226;2023-07-13T02:59:58;101498.63;;;14.57;100.00
76024;BME280;64719;52.124;6.226;2023-07-13T03:02:24;101494.91;;;14.75;100.00
76024;BME280;64719;52.124;6.226;2023-07-13T03:04:54;101490.34;;;14.81;100.00
76024;BME280;64719;52.124;6.226;2023-07-13T03:07:21;101491.75;;;14.83;100.00
76024;BME280;64719;52.124;6.226;2023-07-13T03:09:48;101500.78;;;14.84;100.00
76024;BME280;64719;52.124;6.226;2023-07-13T03:12:15;101501.03;;;14.82;100.00
76024;BME280;64719;52.124;6.226;2023-07-13T03:14:41;101497.88;;;14.74;100.00
76024;BME280;64719;52.124;6.226;2023-07-13T03:17:08;101506.56;;;14.71;100.00
76024;BME280;64719;52.124;6.226;2023-07-13T03:19:35;101513.22;;;14.63;100.00
76024;BME280;64719;52.124;6.226;2023-07-13T03:22:03;101506.72;;;14.52;100.00
76024;BME280;64719;52.124;6.226;2023-07-13T03:24:31;101508.63;;;14.52;100.00
76024;BME280;64719;52.124;6.226;2023-07-13T03:27:00;101504.97;;;14.46;100.00
76024;BME280;64719;52.124;6.226;2023-07-13T03:29:27;101502.56;;;14.50;100.00
76024;BME280;64719;52.124;6.226;2023-07-13T03:31:54;101503.63;;;14.49;100.00
76024;BME280;64719;52.124;6.226;2023-07-13T03:34:21;101512.06;;;14.47;100.00
76024;BME280;64719;52.124;6.226;2023-07-13T03:36:47;101520.88;;;14.49;100.00
76024;BME280;64719;52.124;6.226;2023-07-13T03:39:15;101518.84;;;14.45;100.00
76024;BME280;64719;52.124;6.226;2023-07-13T03:41:42;101521.59;;;14.45;100.00
76024;BME280;64719;52.124;6.226;2023-07-13T03:44:09;101521.34;;;14.35;100.00
76024;BME280;64719;52.124;6.226;2023-07-13T03:46:35;101522.88;;;14.42;100.00
76024;BME280;64719;52.124;6.226;2023-07-13T03:49:04;101526.22;;;14.44;100.00
76024;BME280;64719;52.124;6.226;2023-07-13T03:51:31;101533.47;;;14.39;100.00
76024;BME280;64719;52.124;6.226;2023-07-13T03:53:57;101536.78;;;14.41;100.00
76024;BME280;64719;52.124;6.226;2023-07-13T03:56:25;101537.97;;;14.45;100.00
76024;BME280;64719;52.124;6.226;2023-07-13T03:58:52;101541.28;;;14.47;100.00
76024;BME280;64719;52.124;6.226;2023-07-13T04:01:21;101543.44;;;14.45;100.00
76024;BME280;64719;52.124;6.226;2023-07-13T04:03:48;101540.56;;;14.51;100.00
76024;BME280;64719;52.124;6.226;2023-07-13T04:06:17;101543.28;;;14.51;100.00
76024;BME280;64719;52.124;6.226;2023-07-13T04:08:46;101531.16;;;14.59;100.00
76024;BME280;64719;52.124;6.226;2023-07-13T04:11:14;101544.22;;;14.68;100.00
76024;BME280;64719;52.124;6.226;2023-07-13T04:13:42;101543.25;;;14.75;100.00
76024;BME280;64719;52.124;6.226;2023-07-13T04:16:09;101545.84;;;14.81;100.00
76024;BME280;64719;52.124;6.226;2023-07-13T04:18:36;101553.41;;;14.91;100.00
76024;BME280;64719;52.124;6.226;2023-07-13T04:21:03;101550.19;;;14.94;100.00
76024;BME280;64719;52.124;6.226;2023-07-13T04:23:29;101551.63;;;14.96;100.00
76024;BME280;64719;52.124;6.226;2023-07-13T04:25:56;101547.97;;;15.07;100.00
76024;BME280;64719;52.124;6.226;2023-07-13T04:28:25;101546.25;;;15.29;100.00
76024;BME280;64719;52.124;6.226;2023-07-13T04:30:53;101547.47;;;15.83;100.00
76024;BME280;64719;52.124;6.226;2023-07-13T04:33:20;101546.72;;;16.80;100.00
76024;BME280;64719;52.124;6.226;2023-07-13T04:35:48;101542.28;;;17.75;100.00
76024;BME280;64719;52.124;6.226;2023-07-13T04:38:15;101537.03;;;18.42;100.00
76024;BME280;64719;52.124;6.226;2023-07-13T04:40:42;101542.06;;;18.60;100.00
76024;BME280;64719;52.124;6.226;2023-07-13T04:43:11;101539.44;;;18.90;100.00
76024;BME280;64719;52.124;6.226;2023-07-13T04:45:37;101541.09;;;19.01;100.00
76024;BME280;64719;52.124;6.226;2023-07-13T04:48:06;101537.81;;;18.99;100.00
76024;BME280;64719;52.124;6.226;2023-07-13T04:50:32;101538.25;;;19.68;100.00
76024;BME280;64719;52.124;6.226;2023-07-13T04:52:59;101548.81;;;18.99;100.00
76024;BME280;64719;52.124;6.226;2023-07-13T04:55:26;101541.56;;;19.90;100.00
76024;BME280;64719;52.124;6.226;2023-07-13T04:57:56;101549.00;;;19.64;100.00
76024;BME280;64719;52.124;6.226;2023-07-13T05:00:24;101546.78;;;19.71;100.00
76024;BME280;64719;52.124;6.226;2023-07-13T05:02:51;101556.16;;;20.16;100.00
76024;BME280;64719;52.124;6.226;2023-07-13T05:05:19;101557.19;;;20.45;100.00
76024;BME280;64719;52.124;6.226;2023-07-13T05:07:45;101558.78;;;20.71;100.00
76024;BME280;64719;52.124;6.226;2023-07-13T05:10:12;101562.75;;;20.30;100.00
76024;BME280;64719;52.124;6.226;2023-07-13T05:12:39;101568.41;;;20.83;100.00
76024;BME280;64719;52.124;6.226;2023-07-13T05:15:07;101570.59;;;20.81;100.00
76024;BME280;64719;52.124;6.226;2023-07-13T05:17:33;101568.19;;;21.72;100.00
76024;BME280;64719;52.124;6.226;2023-07-13T05:20:00;101574.56;;;20.50;100.00
76024;BME280;64719;52.124;6.226;2023-07-13T05:22:28;101566.66;;;21.95;100.00
76024;BME280;64719;52.124;6.226;2023-07-13T05:24:55;101582.84;;;19.45;100.00
76024;BME280;64719;52.124;6.226;2023-07-13T05:27:21;101579.84;;;20.02;100.00
76024;BME280;64719;52.124;6.226;2023-07-13T05:29:49;101580.31;;;19.28;100.00
76024;BME280;64719;52.124;6.226;2023-07-13T05:32:17;101577.88;;;18.80;100.00
76024;BME280;64719;52.124;6.226;2023-07-13T05:34:44;101584.53;;;19.96;100.00
76024;BME280;64719;52.124;6.226;2023-07-13T05:37:11;101577.97;;;21.98;100.00
76024;BME280;64719;52.124;6.226;2023-07-13T05:39:39;101580.28;;;22.20;100.00
76024;BME280;64719;52.124;6.226;2023-07-13T05:42:06;101577.09;;;20.37;100.00
76024;BME280;64719;52.124;6.226;2023-07-13T05:44:33;101591.56;;;21.46;100.00
76024;BME280;64719;52.124;6.226;2023-07-13T05:46:59;101596.69;;;21.19;100.00
76024;BME280;64719;52.124;6.226;2023-07-13T05:49:26;101599.53;;;20.94;100.00
76024;BME280;64719;52.124;6.226;2023-07-13T05:51:53;101598.88;;;19.01;100.00
76024;BME280;64719;52.124;6.226;2023-07-13T05:54:19;101608.06;;;18.29;100.00
76024;BME280;64719;52.124;6.226;2023-07-13T05:56:48;101606.72;;;18.31;100.00
76024;BME280;64719;52.124;6.226;2023-07-13T05:59:14;101609.59;;;18.46;100.00
76024;BME280;64719;52.124;6.226;2023-07-13T06:01:41;101615.41;;;18.18;100.00
76024;BME280;64719;52.124;6.226;2023-07-13T06:04:08;101611.94;;;18.33;100.00
76024;BME280;64719;52.124;6.226;2023-07-13T06:06:35;101620.50;;;19.29;100.00
76024;BME280;64719;52.124;6.226;2023-07-13T06:09:01;101618.78;;;18.67;100.00
76024;BME280;64719;52.124;6.226;2023-07-13T06:11:28;101625.75;;;18.38;100.00
76024;BME280;64719;52.124;6.226;2023-07-13T06:13:57;101629.41;;;18.16;100.00
76024;BME280;64719;52.124;6.226;2023-07-13T06:16:23;101629.94;;;18.45;100.00
76024;BME280;64719;52.124;6.226;2023-07-13T06:18:50;101629.81;;;18.72;100.00
76024;BME280;64719;52.124;6.226;2023-07-13T06:21:19;101635.38;;;18.40;100.00
76024;BME280;64719;52.124;6.226;2023-07-13T06:23:48;101638.72;;;18.42;100.00
76024;BME280;64719;52.124;6.226;2023-07-13T06:26:15;101649.50;;;18.22;100.00
76024;BME280;64719;52.124;6.226;2023-07-13T06:28:42;101644.59;;;18.29;100.00
76024;BME280;64719;52.124;6.226;2023-07-13T06:31:12;101647.81;;;18.16;100.00
76024;BME280;64719;52.124;6.226;2023-07-13T06:33:39;101654.28;;;18.37;100.00
76024;BME280;64719;52.124;6.226;2023-07-13T06:36:07;101649.03;;;18.30;100.00
76024;BME280;64719;52.124;6.226;2023-07-13T06:38:34;101661.03;;;18.51;100.00
76024;BME280;64719;52.124;6.226;2023-07-13T06:41:01;101653.34;;;19.61;100.00
76024;BME280;64719;52.124;6.226;2023-07-13T06:43:28;101658.69;;;20.23;100.00
76024;BME280;64719;52.124;6.226;2023-07-13T06:45:57;101661.50;;;19.31;100.00
76024;BME280;64719;52.124;6.226;2023-07-13T06:48:25;101666.34;;;20.86;100.00
76024;BME280;64719;52.124;6.226;2023-07-13T06:50:52;101651.78;;;20.40;100.00
76024;BME280;64719;52.124;6.226;2023-07-13T06:53:19;101663.88;;;19.84;100.00
76024;BME280;64719;52.124;6.226;2023-07-13T06:55:47;101671.06;;;20.00;100.00
76024;BME280;64719;52.124;6.226;2023-07-13T06:58:15;101668.88;;;20.42;100.00
76024;BME280;64719;52.124;6.226;2023-07-13T07:00:41;101662.25;;;20.73;100.00
76024;BME280;64719;52.124;6.226;2023-07-13T07:03:08;101662.53;;;20.27;100.00
76024;BME280;64719;52.124;6.226;2023-07-13T07:05:36;101670.94;;;19.45;100.00
76024;BME280;64719;52.124;6.226;2023-07-13T07:08:03;101674.28;;;19.67;100.00
76024;BME280;64719;52.124;6.226;2023-07-13T07:10:31;101675.09;;;19.62;100.00
76024;BME280;64719;52.124;6.226;2023-07-13T07:12:57;101682.03;;;19.80;100.00
76024;BME280;64719;52.124;6.226;2023-07-13T07:15:25;101681.09;;;19.34;100.00
76024;BME280;64719;52.124;6.226;2023-07-13T07:17:52;101679.59;;;19.22;100.00
76024;BME280;64719;52.124;6.226;2023-07-13T07:20:19;101671.59;;;19.87;100.00
76024;BME280;64719;52.124;6.226;2023-07-13T07:22:48;101672.97;;;20.05;100.00
76024;BME280;64719;52.124;6.226;2023-07-13T07:25:15;101672.75;;;20.41;100.00
76024;BME280;64719;52.124;6.226;2023-07-13T07:27:42;101676.56;;;20.85;100.00
76024;BME280;64719;52.124;6.226;2023-07-13T07:30:09;101685.66;;;20.91;100.00
76024;BME280;64719;52.124;6.226;2023-07-13T07:32:36;101679.63;;;20.64;100.00
76024;BME280;64719;52.124;6.226;2023-07-13T07:35:03;101679.66;;;20.34;100.00
76024;BME280;64719;52.124;6.226;2023-07-13T07:37:30;101680.13;;;21.11;100.00
76024;BME280;64719;52.124;6.226;2023-07-13T07:39:58;101681.75;;;22.19;100.00
76024;BME280;64719;52.124;6.226;2023-07-13T07:42:25;101674.28;;;21.81;100.00
76024;BME280;64719;52.124;6.226;2023-07-13T07:44:52;101683.06;;;23.12;100.00
76024;BME280;64719;52.124;6.226;2023-07-13T07:47:19;101676.81;;;21.62;100.00
76024;BME280;64719;52.124;6.226;2023-07-13T07:49:45;101675.06;;;21.28;100.00
76024;BME280;64719;52.124;6.226;2023-07-13T07:52:12;101673.94;;;21.34;100.00
76024;BME280;64719;52.124;6.226;2023-07-13T07:54:39;101672.56;;;21.31;100.00
76024;BME280;64719;52.124;6.226;2023-07-13T07:57:07;101670.00;;;21.50;100.00
76024;BME280;64719;52.124;6.226;2023-07-13T07:59:36;101666.91;;;21.61;100.00
76024;BME280;64719;52.124;6.226;2023-07-13T08:02:04;101665.84;;;20.59;100.00
76024;BME280;64719;52.124;6.226;2023-07-13T08:04:31;101666.91;;;20.83;100.00
76024;BME280;64719;52.124;6.226;2023-07-13T08:06:57;101666.41;;;20.66;100.00
76024;BME280;64719;52.124;6.226;2023-07-13T08:09:24;101666.38;;;20.71;100.00
76024;BME280;64719;52.124;6.226;2023-07-13T08:11:51;101672.47;;;20.63;100.00
76024;BME280;64719;52.124;6.226;2023-07-13T08:14:19;101665.53;;;21.00;100.00
76024;BME280;64719;52.124;6.226;2023-07-13T08:16:46;101665.25;;;21.60;100.00
76024;BME280;64719;52.124;6.226;2023-07-13T08:19:12;101663.19;;;22.58;100.00
76024;BME280;64719;52.124;6.226;2023-07-13T08:21:39;101670.63;;;21.91;100.00
76024;BME280;64719;52.124;6.226;2023-07-13T08:24:07;101672.03;;;21.88;100.00
76024;BME280;64719;52.124;6.226;2023-07-13T08:26:34;101668.25;;;22.13;100.00
76024;BME280;64719;52.124;6.226;2023-07-13T08:29:01;101679.50;;;21.29;100.00
76024;BME280;64719;52.124;6.226;2023-07-13T08:31:29;101675.06;;;21.33;100.00
76024;BME280;64719;52.124;6.226;2023-07-13T08:33:56;101677.00;;;21.86;100.00
76024;BME280;64719;52.124;6.226;2023-07-13T08:36:23;101675.81;;;21.48;100.00
76024;BME280;64719;52.124;6.226;2023-07-13T08:38:50;101673.47;;;21.12;100.00
76024;BME280;64719;52.124;6.226;2023-07-13T08:41:18;101683.44;;;20.93;100.00
76024;BME280;64719;52.124;6.226;2023-07-13T08:43:47;101673.97;;;21.83;100.00
76024;BME280;64719;52.124;6.226;2023-07-13T08:46:18;101660.56;;;23.19;100.00
76024;BME280;64719;52.124;6.226;2023-07-13T08:48:49;101665.41;;;23.08;100.00
76024;BME280;64719;52.124;6.226;2023-07-13T08:51:27;101660.72;;;26.06;99.63
76024;BME280;64719;52.124;6.226;2023-07-13T08:54:00;101658.88;;;24.21;100.00
76024;BME280;64719;52.124;6.226;2023-07-13T08:56:29;101659.09;;;23.03;100.00
76024;BME280;64719;52.124;6.226;2023-07-13T08:58:58;101658.03;;;22.99;100.00
76024;BME280;64719;52.124;6.226;2023-07-13T09:01:30;101662.34;;;21.91;100.00
76024;BME280;64719;52.124;6.226;2023-07-13T09:04:05;101658.72;;;24.63;100.00
76024;BME280;64719;52.124;6.226;2023-07-13T09:06:40;101656.84;;;24.26;100.00
76024;BME280;64719;52.124;6.226;2023-07-13T09:09:17;101648.53;;;23.52;100.00
76024;BME280;64719;52.124;6.226;2023-07-13T09:11:51;101657.84;;;23.14;100.00
76024;BME280;64719;52.124;6.226;2023-07-13T09:14:26;101652.97;;;22.54;100.00
76024;BME280;64719;52.124;6.226;2023-07-13T09:16:58;101657.75;;;21.66;100.00
76024;BME280;64719;52.124;6.226;2023-07-13T09:19:30;101665.16;;;21.81;100.00
76024;BME280;64719;52.124;6.226;2023-07-13T09:21:59;101675.16;;;20.93;100.00
76024;BME280;64719;52.124;6.226;2023-07-13T09:24:38;101673.81;;;20.80;100.00
76024;BME280;64719;52.124;6.226;2023-07-13T09:27:17;101664.50;;;21.45;100.00
76024;BME280;64719;52.124;6.226;2023-07-13T09:29:49;101665.53;;;22.08;100.00
76024;BME280;64719;52.124;6.226;2023-07-13T09:32:18;101663.44;;;25.35;100.00
76024;BME280;64719;52.124;6.226;2023-07-13T09:34:52;101674.56;;;25.84;94.58
76024;BME280;64719;52.124;6.226;2023-07-13T09:37:21;101670.88;;;25.75;89.66
76024;BME280;64719;52.124;6.226;2023-07-13T09:39:49;101675.38;;;25.98;92.02
76024;BME280;64719;52.124;6.226;2023-07-13T09:42:20;101675.03;;;25.10;94.60
76024;BME280;64719;52.124;6.226;2023-07-13T09:44:52;101673.00;;;25.02;98.31
76024;BME280;64719;52.124;6.226;2023-07-13T09:47:21;101678.13;;;25.22;96.39
76024;BME280;64719;52.124;6.226;2023-07-13T09:49:54;101669.13;;;24.71;99.72
76024;BME280;64719;52.124;6.226;2023-07-13T09:52:21;101671.22;;;24.60;96.23
76024;BME280;64719;52.124;6.226;2023-07-13T09:54:50;101662.84;;;24.65;96.69
76024;BME280;64719;52.124;6.226;2023-07-13T09:57:18;101661.66;;;23.47;100.00
76024;BME280;64719;52.124;6.226;2023-07-13T09:59:48;101656.44;;;22.69;100.00
76024;BME280;64719;52.124;6.226;2023-07-13T10:02:26;101656.91;;;21.76;100.00
76024;BME280;64719;52.124;6.226;2023-07-13T10:04:57;101675.38;;;21.21;100.00
76024;BME280;64719;52.124;6.226;2023-07-13T10:07:25;101666.59;;;21.04;100.00
76024;BME280;64719;52.124;6.226;2023-07-13T10:09:52;101678.53;;;20.35;100.00
76024;BME280;64719;52.124;6.226;2023-07-13T10:12:19;101678.00;;;20.23;100.00
76024;BME280;64719;52.124;6.226;2023-07-13T10:14:50;101688.69;;;24.47;100.00
76024;BME280;64719;52.124;6.226;2023-07-13T10:17:24;101692.03;;;27.48;78.53
76024;BME280;64719;52.124;6.226;2023-07-13T10:19:52;101683.13;;;27.93;72.14
76024;BME280;64719;52.124;6.226;2023-07-13T10:22:25;101691.81;;;28.34;70.38
76024;BME280;64719;52.124;6.226;2023-07-13T10:24:55;101698.81;;;29.87;59.92
76024;BME280;64719;52.124;6.226;2023-07-13T10:27:23;101694.06;;;26.86;71.21
76024;BME280;64719;52.124;6.226;2023-07-13T10:29:58;101700.22;;;26.30;66.87
76024;BME280;64719;52.124;6.226;2023-07-13T10:32:27;101700.94;;;28.86;62.09
76024;BME280;64719;52.124;6.226;2023-07-13T10:34:54;101701.88;;;28.99;56.30
76024;BME280;64719;52.124;6.226;2023-07-13T10:37:27;101708.81;;;28.93;52.78
76024;BME280;64719;52.124;6.226;2023-07-13T10:39:55;101710.44;;;29.11;55.18
76024;BME280;64719;52.124;6.226;2023-07-13T10:42:28;101716.44;;;29.88;52.99
76024;BME280;64719;52.124;6.226;2023-07-13T10:44:56;101713.88;;;29.45;52.72
76024;BME280;64719;52.124;6.226;2023-07-13T10:47:23;101716.31;;;29.18;53.54
76024;BME280;64719;52.124;6.226;2023-07-13T10:49:54;101697.28;;;29.40;51.94
76024;BME280;64719;52.124;6.226;2023-07-13T10:52:45;101716.47;;;27.12;61.29
76024;BME280;64719;52.124;6.226;2023-07-13T10:55:36;101706.09;;;27.99;59.15
76024;BME280;64719;52.124;6.226;2023-07-13T10:58:12;101704.03;;;25.99;68.85
76024;BME280;64719;52.124;6.226;2023-07-13T11:00:50;101708.31;;;26.40;74.32
76024;BME280;64719;52.124;6.226;2023-07-13T11:03:18;101695.22;;;28.74;60.97
76024;BME280;64719;52.124;6.226;2023-07-13T11:05:48;101689.66;;;25.56;73.82
76024;BME280;64719;52.124;6.226;2023-07-13T11:08:19;101699.94;;;23.63;96.66
76024;BME280;64719;52.124;6.226;2023-07-13T11:10:52;101727.03;;;22.28;100.00
76024;BME280;64719;52.124;6.226;2023-07-13T11:13:56;101736.19;;;20.71;100.00
76024;BME280;64719;52.124;6.226;2023-07-13T11:16:43;101738.06;;;20.86;100.00
76024;BME280;64719;52.124;6.226;2023-07-13T11:22:21;101732.44;;;24.00;100.00
76024;BME280;64719;52.124;6.226;2023-07-13T11:24:52;101746.06;;;21.17;100.00
76024;BME280;64719;52.124;6.226;2023-07-13T11:27:34;101740.59;;;20.62;100.00
76024;BME280;64719;52.124;6.226;2023-07-13T11:30:24;101741.38;;;20.23;100.00
76024;BME280;64719;52.124;6.226;2023-07-13T11:33:03;101759.84;;;20.17;100.00
76024;BME280;64719;52.124;6.226;2023-07-13T11:35:34;101761.66;;;19.81;100.00
76024;BME280;64719;52.124;6.226;2023-07-13T11:38:02;101764.38;;;19.71;100.00
76024;BME280;64719;52.124;6.226;2023-07-13T11:40:32;101758.13;;;19.96;100.00
76024;BME280;64719;52.124;6.226;2023-07-13T11:42:59;101757.78;;;19.77;100.00
76024;BME280;64719;52.124;6.226;2023-07-13T11:45:27;101762.63;;;20.87;100.00
76024;BME280;64719;52.124;6.226;2023-07-13T11:47:54;101750.94;;;24.41;100.00
76024;BME280;64719;52.124;6.226;2023-07-13T11:50:23;101759.34;;;23.00;100.00
76024;BME280;64719;52.124;6.226;2023-07-13T11:52:52;101758.97;;;22.06;100.00
76024;BME280;64719;52.124;6.226;2023-07-13T11:55:22;101763.69;;;21.36;100.00
76024;BME280;64719;52.124;6.226;2023-07-13T11:57:52;101764.59;;;20.87;100.00
76024;BME280;64719;52.124;6.226;2023-07-13T12:00:23;101767.38;;;21.02;100.00
76024;BME280;64719;52.124;6.226;2023-07-13T12:02:55;101762.66;;;21.02;100.00
76024;BME280;64719;52.124;6.226;2023-07-13T12:05:22;101762.28;;;21.39;100.00
76024;BME280;64719;52.124;6.226;2023-07-13T12:07:50;101765.75;;;21.75;100.00
76024;BME280;64719;52.124;6.226;2023-07-13T12:10:19;101766.00;;;21.88;100.00
76024;BME280;64719;52.124;6.226;2023-07-13T12:12:47;101760.47;;;22.32;100.00
76024;BME280;64719;52.124;6.226;2023-07-13T12:15:16;101765.00;;;24.82;100.00
76024;BME280;64719;52.124;6.226;2023-07-13T12:17:43;101749.00;;;27.25;85.51
76024;BME280;64719;52.124;6.226;2023-07-13T12:20:21;101743.38;;;28.71;77.58
76024;BME280;64719;52.124;6.226;2023-07-13T12:22:51;101741.75;;;28.53;73.84
76024;BME280;64719;52.124;6.226;2023-07-13T12:25:19;101739.66;;;25.02;90.81
76024;BME280;64719;52.124;6.226;2023-07-13T12:27:49;101750.06;;;23.43;100.00
76024;BME280;64719;52.124;6.226;2023-07-13T12:30:29;101749.59;;;22.79;100.00
76024;BME280;64719;52.124;6.226;2023-07-13T12:32:58;101747.25;;;22.62;100.00
76024;BME280;64719;52.124;6.226;2023-07-13T12:35:26;101751.69;;;23.20;100.00
76024;BME280;64719;52.124;6.226;2023-07-13T12:37:56;101746.06;;;23.30;100.00
76024;BME280;64719;52.124;6.226;2023-07-13T12:40:34;101743.31;;;22.97;100.00
76024;BME280;64719;52.124;6.226;2023-07-13T12:43:02;101748.44;;;22.85;100.00
76024;BME280;64719;52.124;6.226;2023-07-13T12:45:31;101747.53;;;22.61;100.00
76024;BME280;64719;52.124;6.226;2023-07-13T12:48:02;101757.06;;;22.01;100.00
76024;BME280;64719;52.124;6.226;2023-07-13T12:50:34;101754.75;;;23.19;100.00